sensor_id;sensor_type;location;lat;lon;timestamp;pressure;altitude;pressure_sealevel;temperature;humidity
78839;BME280;68405;47.190;27.558;2023-04-06T00:00:57;99054.29;;;-0.38;93.33
78839;BME280;68405;47.190;27.558;2023-04-06T00:03:29;99046.44;;;-0.39;93.50
78839;BME280;68405;47.190;27.558;2023-04-06T00:06:02;99044.56;;;-0.37;93.41
78839;BME280;68405;47.190;27.558;2023-04-06T00:08:34;99040.46;;;-0.36;93.48
78839;BME280;68405;47.190;27.558;2023-04-06T00:11:06;99027.67;;;-0.37;93.30
78839;BME280;68405;47.190;27.558;2023-04-06T00:13:38;99029.20;;;-0.36;93.14
78839;BME280;68405;47.190;27.558;2023-04-06T00:16:10;99024.95;;;-0.38;93.30
78839;BME280;68405;47.190;27.558;2023-04-06T00:18:42;99025.11;;;-0.39;93.00
78839;BME280;68405;47.190;27.558;2023-04-06T00:21:14;99019.83;;;-0.40;93.12
78839;BME280;68405;47.190;27.558;2023-04-06T00:23:46;99023.39;;;-0.40;93.22
78839;BME280;68405;47.190;27.558;2023-04-06T00:26:18;99014.71;;;-0.39;93.19
78839;BME280;68405;47.190;27.558;2023-04-06T00:28:50;99010.61;;;-0.39;93.34
78839;BME280;68405;47.190;27.558;2023-04-06T00:31:22;99002.77;;;-0.38;93.29
78839;BME280;68405;47.190;27.558;2023-04-06T00:33:54;98996.96;;;-0.37;93.34
78839;BME280;68405;47.190;27.558;2023-04-06T00:36:27;99001.73;;;-0.38;93.31
78839;BME280;68405;47.190;27.558;2023-04-06T00:38:58;98993.55;;;-0.39;93.15
78839;BME280;68405;47.190;27.558;2023-04-06T00:41:30;98995.45;;;-0.41;93.19
78839;BME280;68405;47.190;27.558;2023-04-06T00:44:03;98992.20;;;-0.40;93.40
78839;BME280;68405;47.190;27.558;2023-04-06T00:46:35;98990.14;;;-0.37;93.19
78839;BME280;68405;47.190;27.558;2023-04-06T00:49:07;98990.47;;;-0.36;93.29
78839;BME280;68405;47.190;27.558;2023-04-06T00:51:39;98980.77;;;-0.37;93.19
78839;BME280;68405;47.190;27.558;2023-04-06T00:54:11;98977.68;;;-0.38;93.28
78839;BME280;68405;47.190;27.558;2023-04-06T00:56:44;98973.94;;;-0.37;93.28
78839;BME280;68405;47.190;27.558;2023-04-06T00:59:16;98971.04;;;-0.38;93.25
78839;BME280;68405;47.190;27.558;2023-04-06T01:01:49;98969.34;;;-0.40;93.03
78839;BME280;68405;47.190;27.558;2023-04-06T01:04:21;98964.22;;;-0.40;93.36
78839;BME280;68405;47.190;27.558;2023-04-06T01:06:54;98965.75;;;-0.39;93.45
78839;BME280;68405;47.190;27.558;2023-04-06T01:09:26;98959.79;;;-0.39;93.19
78839;BME280;68405;47.190;27.558;2023-04-06T01:11:58;98955.86;;;-0.40;93.30
78839;BME280;68405;47.190;27.558;2023-04-06T01:14:31;98948.35;;;-0.41;93.19
78839;BME280;68405;47.190;27.558;2023-04-06T01:17:03;98951.95;;;-0.41;93.32
78839;BME280;68405;47.190;27.558;2023-04-06T01:19:35;98951.79;;;-0.43;93.23
78839;BME280;68405;47.190;27.558;2023-04-06T01:22:08;98944.98;;;-0.46;93.03
78839;BME280;68405;47.190;27.558;2023-04-06T01:24:40;98942.59;;;-0.47;93.17
78839;BME280;68405;47.190;27.558;2023-04-06T01:27:12;98942.60;;;-0.47;93.37
78839;BME280;68405;47.190;27.558;2023-04-06T01:29:44;98934.07;;;-0.48;93.07
78839;BME280;68405;47.190;27.558;2023-04-06T01:32:16;98933.56;;;-0.49;93.27
78839;BME280;68405;47.190;27.558;2023-04-06T01:34:48;98935.28;;;-0.51;93.15
78839;BME280;68405;47.190;27.558;2023-04-06T01:37:20;98930.50;;;-0.50;93.59
78839;BME280;68405;47.190;27.558;2023-04-06T01:39:52;98924.36;;;-0.50;93.43
78839;BME280;68405;47.190;27.558;2023-04-06T01:42:24;98920.60;;;-0.48;93.70
78839;BME280;68405;47.190;27.558;2023-04-06T01:44:56;98926.73;;;-0.49;93.48
78839;BME280;68405;47.190;27.558;2023-04-06T01:47:28;98912.42;;;-0.50;93.27
78839;BME280;68405;47.190;27.558;2023-04-06T01:50:00;98917.55;;;-0.50;93.37
78839;BME280;68405;47.190;27.558;2023-04-06T01:52:33;98912.42;;;-0.50;93.45
78839;BME280;68405;47.190;27.558;2023-04-06T01:55:06;98919.59;;;-0.50;93.55
78839;BME280;68405;47.190;27.558;2023-04-06T01:57:38;98913.61;;;-0.49;93.47
78839;BME280;68405;47.190;27.558;2023-04-06T02:00:12;98912.93;;;-0.48;93.38
78839;BME280;68405;47.190;27.558;2023-04-06T02:02:44;98908.29;;;-0.46;93.26
78839;BME280;68405;47.190;27.558;2023-04-06T02:05:17;98913.07;;;-0.44;93.37
78839;BME280;68405;47.190;27.558;2023-04-06T02:07:49;98910.00;;;-0.46;93.12
78839;BME280;68405;47.190;27.558;2023-04-06T02:10:22;98905.94;;;-0.51;93.04
78839;BME280;68405;47.190;27.558;2023-04-06T02:12:54;98901.18;;;-0.53;93.22
78839;BME280;68405;47.190;27.558;2023-04-06T02:15:26;98896.06;;;-0.53;93.13
78839;BME280;68405;47.190;27.558;2023-04-06T02:17:58;98893.34;;;-0.53;93.13
78839;BME280;68405;47.190;27.558;2023-04-06T02:20:31;98888.21;;;-0.53;92.95
78839;BME280;68405;47.190;27.558;2023-04-06T02:23:03;98887.71;;;-0.53;93.02
78839;BME280;68405;47.190;27.558;2023-04-06T02:25:35;98897.08;;;-0.52;93.12
78839;BME280;68405;47.190;27.558;2023-04-06T02:28:07;98890.25;;;-0.52;92.88
78839;BME280;68405;47.190;27.558;2023-04-06T02:30:39;98889.39;;;-0.51;92.87
78839;BME280;68405;47.190;27.558;2023-04-06T02:33:10;98888.55;;;-0.50;93.06
78839;BME280;68405;47.190;27.558;2023-04-06T02:35:43;98887.34;;;-0.50;92.94
78839;BME280;68405;47.190;27.558;2023-04-06T02:38:15;98879.51;;;-0.52;92.78
78839;BME280;68405;47.190;27.558;2023-04-06T02:40:47;98877.96;;;-0.52;92.69
78839;BME280;68405;47.190;27.558;2023-04-06T02:43:20;98875.24;;;-0.52;92.73
78839;BME280;68405;47.190;27.558;2023-04-06T02:45:52;98879.69;;;-0.54;92.58
78839;BME280;68405;47.190;27.558;2023-04-06T02:48:24;98882.76;;;-0.55;92.59
78839;BME280;68405;47.190;27.558;2023-04-06T02:50:56;98877.13;;;-0.54;92.85
78839;BME280;68405;47.190;27.558;2023-04-06T02:53:28;98876.27;;;-0.52;92.74
78839;BME280;68405;47.190;27.558;2023-04-06T02:56:00;98875.73;;;-0.49;92.83
78839;BME280;68405;47.190;27.558;2023-04-06T02:58:32;98876.23;;;-0.46;92.89
78839;BME280;68405;47.190;27.558;2023-04-06T03:01:04;98876.75;;;-0.47;92.51
78839;BME280;68405;47.190;27.558;2023-04-06T03:03:37;98873.54;;;-0.50;92.46
78839;BME280;68405;47.190;27.558;2023-04-06T03:06:10;98879.50;;;-0.52;92.53
78839;BME280;68405;47.190;27.558;2023-04-06T03:08:42;98877.47;;;-0.52;92.84
78839;BME280;68405;47.190;27.558;2023-04-06T03:11:14;98876.27;;;-0.51;93.07
78839;BME280;68405;47.190;27.558;2023-04-06T03:13:46;98879.33;;;-0.50;93.21
78839;BME280;68405;47.190;27.558;2023-04-06T03:16:18;98878.82;;;-0.51;93.07
78839;BME280;68405;47.190;27.558;2023-04-06T03:18:50;98876.45;;;-0.53;93.09
78839;BME280;68405;47.190;27.558;2023-04-06T03:21:22;98874.76;;;-0.55;93.18
78839;BME280;68405;47.190;27.558;2023-04-06T03:23:54;98882.43;;;-0.55;93.07
78839;BME280;68405;47.190;27.558;2023-04-06T03:26:26;98876.29;;;-0.55;93.22
78839;BME280;68405;47.190;27.558;2023-04-06T03:28:58;98870.16;;;-0.56;93.17
78839;BME280;68405;47.190;27.558;2023-04-06T03:31:30;98873.23;;;-0.57;93.31
78839;BME280;68405;47.190;27.558;2023-04-06T03:34:02;98870.50;;;-0.58;93.15
78839;BME280;68405;47.190;27.558;2023-04-06T03:36:35;98880.05;;;-0.59;92.90
78839;BME280;68405;47.190;27.558;2023-04-06T03:39:07;98880.75;;;-0.60;93.18
78839;BME280;68405;47.190;27.558;2023-04-06T03:41:39;98883.98;;;-0.58;92.97
78839;BME280;68405;47.190;27.558;2023-04-06T03:44:11;98881.92;;;-0.56;93.27
78839;BME280;68405;47.190;27.558;2023-04-06T03:46:44;98885.67;;;-0.57;93.01
78839;BME280;68405;47.190;27.558;2023-04-06T03:49:15;98890.11;;;-0.57;93.20
78839;BME280;68405;47.190;27.558;2023-04-06T03:51:47;98882.77;;;-0.57;93.24
78839;BME280;68405;47.190;27.558;2023-04-06T03:54:19;98888.92;;;-0.58;93.10
78839;BME280;68405;47.190;27.558;2023-04-06T03:56:52;98890.63;;;-0.58;93.15
78839;BME280;68405;47.190;27.558;2023-04-06T03:59:24;98894.38;;;-0.58;93.05
78839;BME280;68405;47.190;27.558;2023-04-06T04:01:55;98898.13;;;-0.58;93.09
78839;BME280;68405;47.190;27.558;2023-04-06T04:04:27;98896.09;;;-0.57;92.85
78839;BME280;68405;47.190;27.558;2023-04-06T04:06:59;98895.23;;;-0.57;92.99
78839;BME280;68405;47.190;27.558;2023-04-06T04:09:31;98892.51;;;-0.56;93.04
78839;BME280;68405;47.190;27.558;2023-04-06T04:12:04;98889.26;;;-0.55;92.91
78839;BME280;68405;47.190;27.558;2023-04-06T04:14:36;98893.00;;;-0.55;92.98
78839;BME280;68405;47.190;27.558;2023-04-06T04:17:08;98890.78;;;-0.54;93.03
78839;BME280;68405;47.190;27.558;2023-04-06T04:19:40;98883.27;;;-0.55;92.68
78839;BME280;68405;47.190;27.558;2023-04-06T04:22:12;98886.36;;;-0.55;93.02
78839;BME280;68405;47.190;27.558;2023-04-06T04:24:44;98874.93;;;-0.56;92.99
78839;BME280;68405;47.190;27.558;2023-04-06T04:27:16;98880.39;;;-0.56;92.91
78839;BME280;68405;47.190;27.558;2023-04-06T04:29:48;98880.38;;;-0.55;92.87
78839;BME280;68405;47.190;27.558;2023-04-06T04:32:21;98889.40;;;-0.52;93.10
78839;BME280;68405;47.190;27.558;2023-04-06T04:34:53;98890.08;;;-0.50;92.91
78839;BME280;68405;47.190;27.558;2023-04-06T04:37:25;98895.02;;;-0.49;93.03
78839;BME280;68405;47.190;27.558;2023-04-06T04:39:57;98892.96;;;-0.47;92.91
78839;BME280;68405;47.190;27.558;2023-04-06T04:42:29;98890.57;;;-0.47;92.87
78839;BME280;68405;47.190;27.558;2023-04-06T04:45:01;98895.54;;;-0.49;92.87
78839;BME280;68405;47.190;27.558;2023-04-06T04:47:33;98893.14;;;-0.51;93.13
78839;BME280;68405;47.190;27.558;2023-04-06T04:50:07;98896.73;;;-0.52;93.17
78839;BME280;68405;47.190;27.558;2023-04-06T04:52:40;98886.67;;;-0.53;93.35
78839;BME280;68405;47.190;27.558;2023-04-06T04:55:13;98893.14;;;-0.50;93.08
78839;BME280;68405;47.190;27.558;2023-04-06T04:57:45;98887.34;;;-0.49;93.15
78839;BME280;68405;47.190;27.558;2023-04-06T05:00:18;98883.24;;;-0.49;92.87
78839;BME280;68405;47.190;27.558;2023-04-06T05:02:51;98884.42;;;-0.47;93.14
78839;BME280;68405;47.190;27.558;2023-04-06T05:05:23;98883.23;;;-0.46;93.03
78839;BME280;68405;47.190;27.558;2023-04-06T05:07:56;98886.80;;;-0.45;92.90
78839;BME280;68405;47.190;27.558;2023-04-06T05:10:28;98882.02;;;-0.43;92.81
78839;BME280;68405;47.190;27.558;2023-04-06T05:13:00;98884.75;;;-0.42;92.74
78839;BME280;68405;47.190;27.558;2023-04-06T05:15:32;98882.00;;;-0.42;92.66
78839;BME280;68405;47.190;27.558;2023-04-06T05:18:05;98883.02;;;-0.39;92.57
78839;BME280;68405;47.190;27.558;2023-04-06T05:20:38;98880.94;;;-0.36;92.34
78839;BME280;68405;47.190;27.558;2023-04-06T05:23:10;98883.84;;;-0.35;92.53
78839;BME280;68405;47.190;27.558;2023-04-06T05:25:43;98881.10;;;-0.33;92.67
78839;BME280;68405;47.190;27.558;2023-04-06T05:28:15;98879.56;;;-0.31;92.48
78839;BME280;68405;47.190;27.558;2023-04-06T05:30:47;98872.91;;;-0.31;92.40
78839;BME280;68405;47.190;27.558;2023-04-06T05:33:19;98876.14;;;-0.32;92.50
78839;BME280;68405;47.190;27.558;2023-04-06T05:35:51;98873.77;;;-0.33;92.43
78839;BME280;68405;47.190;27.558;2023-04-06T05:38:23;98871.54;;;-0.33;92.36
78839;BME280;68405;47.190;27.558;2023-04-06T05:40:55;98867.95;;;-0.31;92.44
78839;BME280;68405;47.190;27.558;2023-04-06T05:43:27;98870.32;;;-0.29;92.59
78839;BME280;68405;47.190;27.558;2023-04-06T05:46:00;98864.88;;;-0.30;92.26
78839;BME280;68405;47.190;27.558;2023-04-06T05:48:32;98873.93;;;-0.31;92.38
78839;BME280;68405;47.190;27.558;2023-04-06T05:51:05;98870.16;;;-0.30;92.31
78839;BME280;68405;47.190;27.558;2023-04-06T05:53:38;98870.83;;;-0.27;92.37
78839;BME280;68405;47.190;27.558;2023-04-06T05:56:10;98865.67;;;-0.22;92.45
78839;BME280;68405;47.190;27.558;2023-04-06T05:58:42;98860.18;;;-0.18;92.36
78839;BME280;68405;47.190;27.558;2023-04-06T06:01:15;98859.98;;;-0.15;92.27
78839;BME280;68405;47.190;27.558;2023-04-06T06:03:47;98860.46;;;-0.10;92.37
78839;BME280;68405;47.190;27.558;2023-04-06T06:06:19;98856.15;;;-0.06;92.31
78839;BME280;68405;47.190;27.558;2023-04-06T06:08:51;98851.73;;;-0.05;91.99
78839;BME280;68405;47.190;27.558;2023-04-06T06:11:23;98849.81;;;-0.02;91.73
78839;BME280;68405;47.190;27.558;2023-04-06T06:13:55;98847.05;;;0.02;91.78
78839;BME280;68405;47.190;27.558;2023-04-06T06:16:28;98846.17;;;0.05;91.99
78839;BME280;68405;47.190;27.558;2023-04-06T06:19:00;98838.81;;;0.08;91.85
78839;BME280;68405;47.190;27.558;2023-04-06T06:21:32;98844.64;;;0.05;91.56
78839;BME280;68405;47.190;27.558;2023-04-06T06:24:05;98844.82;;;0.03;91.59
78839;BME280;68405;47.190;27.558;2023-04-06T06:26:37;98849.44;;;0.03;91.61
78839;BME280;68405;47.190;27.558;2023-04-06T06:29:09;98847.55;;;0.03;91.59
78839;BME280;68405;47.190;27.558;2023-04-06T06:31:42;98844.44;;;0.08;91.86
78839;BME280;68405;47.190;27.558;2023-04-06T06:34:14;98844.23;;;0.12;91.76
78839;BME280;68405;47.190;27.558;2023-04-06T06:36:46;98845.04;;;0.18;91.32
78839;BME280;68405;47.190;27.558;2023-04-06T06:39:18;98845.49;;;0.22;91.19
78839;BME280;68405;47.190;27.558;2023-04-06T06:41:50;98854.67;;;0.28;91.46
78839;BME280;68405;47.190;27.558;2023-04-06T06:44:22;98850.15;;;0.37;91.64
78839;BME280;68405;47.190;27.558;2023-04-06T06:46:54;98846.70;;;0.40;91.20
78839;BME280;68405;47.190;27.558;2023-04-06T06:49:26;98844.84;;;0.39;90.97
78839;BME280;68405;47.190;27.558;2023-04-06T06:51:58;98849.24;;;0.41;90.83
78839;BME280;68405;47.190;27.558;2023-04-06T06:54:30;98844.10;;;0.44;91.13
78839;BME280;68405;47.190;27.558;2023-04-06T06:57:02;98850.92;;;0.44;90.81
78839;BME280;68405;47.190;27.558;2023-04-06T06:59:34;98849.38;;;0.46;90.94
78839;BME280;68405;47.190;27.558;2023-04-06T07:02:06;98844.27;;;0.44;90.78
78839;BME280;68405;47.190;27.558;2023-04-06T07:04:38;98844.10;;;0.44;90.74
78839;BME280;68405;47.190;27.558;2023-04-06T07:07:10;98846.15;;;0.45;91.06
78839;BME280;68405;47.190;27.558;2023-04-06T07:09:42;98845.77;;;0.47;91.07
78839;BME280;68405;47.190;27.558;2023-04-06T07:12:14;98848.09;;;0.54;91.33
78839;BME280;68405;47.190;27.558;2023-04-06T07:14:46;98850.96;;;0.58;90.97
78839;BME280;68405;47.190;27.558;2023-04-06T07:17:18;98852.66;;;0.58;91.00
78839;BME280;68405;47.190;27.558;2023-04-06T07:19:50;98848.38;;;0.59;91.03
78839;BME280;68405;47.190;27.558;2023-04-06T07:22:23;98848.01;;;0.61;91.07
78839;BME280;68405;47.190;27.558;2023-04-06T07:24:55;98851.80;;;0.59;91.07
78839;BME280;68405;47.190;27.558;2023-04-06T07:27:27;98857.89;;;0.65;91.26
78839;BME280;68405;47.190;27.558;2023-04-06T07:29:59;98857.45;;;0.74;91.72
78839;BME280;68405;47.190;27.558;2023-04-06T07:32:31;98857.92;;;0.77;90.94
78839;BME280;68405;47.190;27.558;2023-04-06T07:35:06;98851.83;;;0.73;90.46
78839;BME280;68405;47.190;27.558;2023-04-06T07:37:38;98852.85;;;0.73;90.68
78839;BME280;68405;47.190;27.558;2023-04-06T07:40:11;98856.41;;;0.75;91.04
78839;BME280;68405;47.190;27.558;2023-04-06T07:42:43;98855.67;;;0.79;91.13
78839;BME280;68405;47.190;27.558;2023-04-06T07:45:15;98851.65;;;0.88;91.33
78839;BME280;68405;47.190;27.558;2023-04-06T07:47:47;98853.80;;;0.93;90.91
78839;BME280;68405;47.190;27.558;2023-04-06T07:50:20;98853.95;;;0.95;90.93
78839;BME280;68405;47.190;27.558;2023-04-06T07:52:52;98853.75;;;0.98;90.88
78839;BME280;68405;47.190;27.558;2023-04-06T07:55:25;98851.42;;;1.05;91.03
78839;BME280;68405;47.190;27.558;2023-04-06T07:57:58;98851.33;;;1.14;91.28
78839;BME280;68405;47.190;27.558;2023-04-06T08:00:30;98845.63;;;1.18;90.75
78839;BME280;68405;47.190;27.558;2023-04-06T08:03:02;98845.48;;;1.17;90.65
78839;BME280;68405;47.190;27.558;2023-04-06T08:05:34;98840.98;;;1.20;90.52
78839;BME280;68405;47.190;27.558;2023-04-06T08:08:06;98844.77;;;1.18;90.24
78839;BME280;68405;47.190;27.558;2023-04-06T08:10:38;98847.98;;;1.21;90.75
78839;BME280;68405;47.190;27.558;2023-04-06T08:13:10;98853.93;;;1.24;90.44
78839;BME280;68405;47.190;27.558;2023-04-06T08:15:42;98856.66;;;1.25;90.66
78839;BME280;68405;47.190;27.558;2023-04-06T08:18:14;98860.42;;;1.24;90.44
78839;BME280;68405;47.190;27.558;2023-04-06T08:20:46;98864.02;;;1.25;90.58
78839;BME280;68405;47.190;27.558;2023-04-06T08:23:19;98865.91;;;1.23;90.01
78839;BME280;68405;47.190;27.558;2023-04-06T08:25:51;98867.18;;;1.18;90.28
78839;BME280;68405;47.190;27.558;2023-04-06T08:28:24;98867.00;;;1.19;90.61
78839;BME280;68405;47.190;27.558;2023-04-06T08:30:56;98864.09;;;1.19;90.40
78839;BME280;68405;47.190;27.558;2023-04-06T08:33:28;98868.34;;;1.21;90.59
78839;BME280;68405;47.190;27.558;2023-04-06T08:36:01;98873.59;;;1.25;90.55
78839;BME280;68405;47.190;27.558;2023-04-06T08:38:38;98873.92;;;1.26;90.38
78839;BME280;68405;47.190;27.558;2023-04-06T08:41:11;98880.05;;;1.28;90.41
78839;BME280;68405;47.190;27.558;2023-04-06T08:43:46;98882.27;;;1.28;90.26
78839;BME280;68405;47.190;27.558;2023-04-06T08:46:19;98888.73;;;1.32;90.60
78839;BME280;68405;47.190;27.558;2023-04-06T08:48:51;98890.52;;;1.38;90.30
78839;BME280;68405;47.190;27.558;2023-04-06T08:51:24;98893.36;;;1.43;90.83
78839;BME280;68405;47.190;27.558;2023-04-06T08:53:58;98899.23;;;1.52;90.80
78839;BME280;68405;47.190;27.558;2023-04-06T08:56:30;98898.78;;;1.60;90.50
78839;BME280;68405;47.190;27.558;2023-04-06T08:59:04;98895.94;;;1.68;90.61
78839;BME280;68405;47.190;27.558;2023-04-06T09:01:40;98893.53;;;1.80;90.71
78839;BME280;68405;47.190;27.558;2023-04-06T09:04:14;98895.09;;;1.91;90.19
78839;BME280;68405;47.190;27.558;2023-04-06T09:06:46;98893.00;;;1.92;90.18
78839;BME280;68405;47.190;27.558;2023-04-06T09:09:20;98892.17;;;2.02;89.99
78839;BME280;68405;47.190;27.558;2023-04-06T09:11:55;98893.38;;;2.12;90.03
78839;BME280;68405;47.190;27.558;2023-04-06T09:14:39;98895.71;;;2.27;89.86
78839;BME280;68405;47.190;27.558;2023-04-06T09:17:22;98897.88;;;2.41;90.04
78839;BME280;68405;47.190;27.558;2023-04-06T09:19:54;98895.42;;;2.54;89.53
78839;BME280;68405;47.190;27.558;2023-04-06T09:22:34;98893.17;;;2.65;89.50
78839;BME280;68405;47.190;27.558;2023-04-06T09:25:17;98899.42;;;2.79;89.42
78839;BME280;68405;47.190;27.558;2023-04-06T09:28:00;98893.67;;;2.92;89.14
78839;BME280;68405;47.190;27.558;2023-04-06T09:30:32;98900.33;;;3.03;88.85
78839;BME280;68405;47.190;27.558;2023-04-06T09:33:06;98898.52;;;3.08;88.74
78839;BME280;68405;47.190;27.558;2023-04-06T09:35:38;98900.84;;;3.12;88.33
78839;BME280;68405;47.190;27.558;2023-04-06T09:38:14;98900.38;;;3.10;87.88
78839;BME280;68405;47.190;27.558;2023-04-06T09:40:52;98903.52;;;3.07;87.79
78839;BME280;68405;47.190;27.558;2023-04-06T09:43:27;98909.55;;;3.06;88.17
78839;BME280;68405;47.190;27.558;2023-04-06T09:46:02;98909.02;;;2.99;87.64
78839;BME280;68405;47.190;27.558;2023-04-06T09:48:36;98910.25;;;2.96;87.83
78839;BME280;68405;47.190;27.558;2023-04-06T09:51:13;98910.45;;;2.85;87.58
78839;BME280;68405;47.190;27.558;2023-04-06T09:53:52;98912.86;;;2.84;88.02
78839;BME280;68405;47.190;27.558;2023-04-06T09:56:27;98914.08;;;2.83;88.17
78839;BME280;68405;47.190;27.558;2023-04-06T09:59:05;98918.18;;;2.84;87.92
78839;BME280;68405;47.190;27.558;2023-04-06T10:01:41;98921.56;;;2.87;88.35
78839;BME280;68405;47.190;27.558;2023-04-06T10:04:21;98921.27;;;2.94;88.48
78839;BME280;68405;47.190;27.558;2023-04-06T10:06:57;98929.22;;;3.00;87.93
78839;BME280;68405;47.190;27.558;2023-04-06T10:09:30;98927.93;;;2.95;87.86
78839;BME280;68405;47.190;27.558;2023-04-06T10:12:08;98931.90;;;2.94;88.08
78839;BME280;68405;47.190;27.558;2023-04-06T10:14:40;98937.42;;;2.93;87.83
78839;BME280;68405;47.190;27.558;2023-04-06T10:17:14;98939.59;;;2.95;88.67
78839;BME280;68405;47.190;27.558;2023-04-06T10:19:51;98939.44;;;3.03;88.62
78839;BME280;68405;47.190;27.558;2023-04-06T10:22:29;98940.69;;;3.10;88.27
78839;BME280;68405;47.190;27.558;2023-04-06T10:25:06;98939.83;;;3.10;88.19
78839;BME280;68405;47.190;27.558;2023-04-06T10:27:39;98942.30;;;3.15;88.21
78839;BME280;68405;47.190;27.558;2023-04-06T10:30:14;98944.20;;;3.14;88.03
78839;BME280;68405;47.190;27.558;2023-04-06T10:32:47;98945.40;;;3.14;88.19
78839;BME280;68405;47.190;27.558;2023-04-06T10:35:19;98945.60;;;3.13;87.91
78839;BME280;68405;47.190;27.558;2023-04-06T10:37:54;98949.00;;;3.15;87.86
78839;BME280;68405;47.190;27.558;2023-04-06T10:40:35;98951.38;;;3.16;87.75
78839;BME280;68405;47.190;27.558;2023-04-06T10:43:12;98951.23;;;3.15;87.87
78839;BME280;68405;47.190;27.558;2023-04-06T10:45:45;98957.03;;;3.16;88.29
78839;BME280;68405;47.190;27.558;2023-04-06T10:48:35;98954.23;;;3.19;88.51
78839;BME280;68405;47.190;27.558;2023-04-06T10:51:12;98958.86;;;3.19;88.42
78839;BME280;68405;47.190;27.558;2023-04-06T10:53:45;98958.81;;;3.14;88.24
78839;BME280;68405;47.190;27.558;2023-04-06T10:56:21;98955.27;;;3.19;89.01
78839;BME280;68405;47.190;27.558;2023-04-06T10:58:55;98959.25;;;3.26;88.75
78839;BME280;68405;47.190;27.558;2023-04-06T11:01:27;98954.30;;;3.33;88.57
78839;BME280;68405;47.190;27.558;2023-04-06T11:03:59;98958.17;;;3.37;87.94
78839;BME280;68405;47.190;27.558;2023-04-06T11:06:32;98955.83;;;3.43;88.02
78839;BME280;68405;47.190;27.558;2023-04-06T11:09:04;98960.06;;;3.45;88.60
78839;BME280;68405;47.190;27.558;2023-04-06T11:11:40;98962.06;;;3.40;87.84
78839;BME280;68405;47.190;27.558;2023-04-06T11:14:12;98962.28;;;3.29;87.66
78839;BME280;68405;47.190;27.558;2023-04-06T11:16:48;98967.77;;;3.21;88.31
78839;BME280;68405;47.190;27.558;2023-04-06T11:19:21;98967.85;;;3.16;88.17
78839;BME280;68405;47.190;27.558;2023-04-06T11:21:53;98963.36;;;3.09;88.38
78839;BME280;68405;47.190;27.558;2023-04-06T11:24:25;98964.84;;;3.03;87.97
78839;BME280;68405;47.190;27.558;2023-04-06T11:26:58;98964.49;;;2.93;88.36
78839;BME280;68405;47.190;27.558;2023-04-06T11:29:31;98961.86;;;2.86;88.23
78839;BME280;68405;47.190;27.558;2023-04-06T11:32:07;98965.09;;;2.79;88.26
78839;BME280;68405;47.190;27.558;2023-04-06T11:34:39;98961.51;;;2.78;88.78
78839;BME280;68405;47.190;27.558;2023-04-06T11:37:12;98967.73;;;2.76;88.97
78839;BME280;68405;47.190;27.558;2023-04-06T11:39:48;98965.26;;;2.69;88.75
78839;BME280;68405;47.190;27.558;2023-04-06T11:42:28;98966.92;;;2.62;88.37
78839;BME280;68405;47.190;27.558;2023-04-06T11:45:01;98963.82;;;2.54;88.12
78839;BME280;68405;47.190;27.558;2023-04-06T11:47:35;98964.91;;;2.50;88.83
78839;BME280;68405;47.190;27.558;2023-04-06T11:50:13;98967.00;;;2.48;88.51
78839;BME280;68405;47.190;27.558;2023-04-06T11:52:45;98970.40;;;2.50;88.87
78839;BME280;68405;47.190;27.558;2023-04-06T11:55:18;98976.30;;;2.45;88.43
78839;BME280;68405;47.190;27.558;2023-04-06T11:57:51;98981.20;;;2.38;88.69
78839;BME280;68405;47.190;27.558;2023-04-06T12:00:24;98985.39;;;2.34;89.00
78839;BME280;68405;47.190;27.558;2023-04-06T12:02:56;98988.98;;;2.33;88.97
78839;BME280;68405;47.190;27.558;2023-04-06T12:05:29;98996.41;;;2.29;88.67
78839;BME280;68405;47.190;27.558;2023-04-06T12:08:02;98996.66;;;2.24;89.13
78839;BME280;68405;47.190;27.558;2023-04-06T12:10:34;98998.45;;;2.20;89.32
78839;BME280;68405;47.190;27.558;2023-04-06T12:13:06;98999.54;;;2.15;89.20
78839;BME280;68405;47.190;27.558;2023-04-06T12:15:38;99000.93;;;2.12;89.35
78839;BME280;68405;47.190;27.558;2023-04-06T12:18:10;99002.83;;;2.11;89.02
78839;BME280;68405;47.190;27.558;2023-04-06T12:20:42;99006.83;;;2.08;89.49
78839;BME280;68405;47.190;27.558;2023-04-06T12:23:13;99009.61;;;2.05;88.99
78839;BME280;68405;47.190;27.558;2023-04-06T12:25:45;99007.88;;;2.07;89.91
78839;BME280;68405;47.190;27.558;2023-04-06T12:28:17;99010.47;;;2.05;89.73
78839;BME280;68405;47.190;27.558;2023-04-06T12:30:51;99013.27;;;2.01;89.57
78839;BME280;68405;47.190;27.558;2023-04-06T12:33:23;99015.11;;;2.04;90.01
78839;BME280;68405;47.190;27.558;2023-04-06T12:35:55;99015.29;;;2.03;89.99
78839;BME280;68405;47.190;27.558;2023-04-06T12:38:27;99017.30;;;2.06;89.76
78839;BME280;68405;47.190;27.558;2023-04-06T12:40:59;99016.98;;;2.04;90.00
78839;BME280;68405;47.190;27.558;2023-04-06T12:43:31;99019.83;;;2.10;90.26
78839;BME280;68405;47.190;27.558;2023-04-06T12:46:03;99022.35;;;2.12;90.33
78839;BME280;68405;47.190;27.558;2023-04-06T12:48:35;99026.44;;;2.15;89.76
78839;BME280;68405;47.190;27.558;2023-04-06T12:51:07;99028.88;;;2.11;89.49
78839;BME280;68405;47.190;27.558;2023-04-06T12:53:39;99031.50;;;2.07;89.49
